Time;durP1;ratioP1;P1;durP2;ratioP2;P2;SDS_P1;SDS_P2;PMS_P1;PMS_P2;Temp;Humidity;BMP_temperature;BMP_pressure;BME280_temperature;BME280_humidity;BME280_pressure;Samples;Min_cycle;Max_cycle;Signal;HPM_P1;HPM_P2
2021/12/20 00:00:41;;;;;;;0.90;0.70;;;17.50;60.70;;;;;;5072451;28;20621;-61
2021/12/20 00:03:07;;;;;;;1.13;0.82;;;17.50;60.70;;;;;;5071990;28;20186;-61
2021/12/20 00:05:32;;;;;;;1.38;0.80;;;17.60;60.80;;;;;;5071487;28;20171;-62
2021/12/20 00:07:58;;;;;;;1.70;0.90;;;17.50;60.60;;;;;;5072141;28;20222;-60
2021/12/20 00:10:23;;;;;;;1.33;0.80;;;17.50;60.60;;;;;;5071828;28;20604;-61
2021/12/20 00:12:49;;;;;;;0.93;0.70;;;17.50;60.60;;;;;;5071674;28;20221;-61
2021/12/20 00:15:16;;;;;;;1.80;0.63;;;17.50;60.70;;;;;;5072504;28;20178;-63
2021/12/20 00:17:41;;;;;;;2.00;1.30;;;17.50;60.70;;;;;;5059234;28;20205;-63
2021/12/20 00:20:07;;;;;;;2.15;0.65;;;17.50;61.40;;;;;;5051487;28;20172;-62
2021/12/20 00:22:33;;;;;;;1.40;0.70;;;17.50;60.60;;;;;;5051867;28;20179;-61
2021/12/20 00:24:58;;;;;;;1.23;0.80;;;17.50;60.60;;;;;;5052525;28;20245;-62
2021/12/20 00:27:24;;;;;;;1.55;0.90;;;17.40;60.60;;;;;;5051285;28;20182;-63
2021/12/20 00:29:49;;;;;;;1.20;0.70;;;17.40;60.60;;;;;;5052156;28;20199;-61
2021/12/20 00:32:16;;;;;;;1.13;0.88;;;17.40;60.50;;;;;;5052052;28;20687;-62
2021/12/20 00:34:41;;;;;;;1.40;1.00;;;17.40;60.50;;;;;;5051123;28;20254;-62
2021/12/20 00:40:20;;;;;;;0.60;0.60;;;17.40;61.40;;;;;;5051849;28;20652;-61
2021/12/20 00:42:37;;;;;;;1.30;0.82;;;17.40;60.50;;;;;;5051198;28;20228;-62
2021/12/20 00:45:03;;;;;;;1.00;0.80;;;17.40;60.40;;;;;;5052039;28;20245;-61
2021/12/20 00:47:29;;;;;;;2.72;1.00;;;17.40;60.40;;;;;;5050559;28;20242;-61
2021/12/20 00:49:54;;;;;;;0.88;0.80;;;17.40;61.30;;;;;;5052014;28;20202;-60
2021/12/20 00:52:20;;;;;;;1.73;1.00;;;17.30;60.40;;;;;;5051327;28;20302;-61
2021/12/20 00:54:45;;;;;;;1.98;0.70;;;17.30;60.50;;;;;;5051021;28;20630;-62
2021/12/20 00:57:11;;;;;;;3.05;1.00;;;17.30;60.40;;;;;;5051862;28;20262;-62
2021/12/20 00:59:36;;;;;;;0.82;0.68;;;17.30;60.40;;;;;;5051356;28;20167;-62
2021/12/20 01:02:02;;;;;;;1.67;1.02;;;17.30;60.40;;;;;;5050949;28;20233;-62
2021/12/20 01:04:27;;;;;;;1.75;0.90;;;17.30;60.50;;;;;;5051642;28;20702;-61
2021/12/20 01:06:53;;;;;;;1.25;1.05;;;17.30;60.40;;;;;;5051795;28;20174;-61
2021/12/20 01:09:18;;;;;;;1.27;0.98;;;17.30;60.50;;;;;;5050605;28;20249;-61
2021/12/20 01:11:50;;;;;;;1.42;0.80;;;17.30;60.50;;;;;;5051386;28;20242;-61
2021/12/20 01:14:22;;;;;;;2.10;1.00;;;17.30;60.40;;;;;;5052614;28;20253;-62
2021/12/20 01:16:47;;;;;;;2.53;1.02;;;17.20;60.40;;;;;;5055274;28;20245;-62
2021/12/20 01:19:13;;;;;;;1.83;1.15;;;17.20;60.30;;;;;;5055769;28;20689;-61
2021/12/20 01:21:38;;;;;;;2.75;0.93;;;17.20;60.40;;;;;;5055359;28;20176;-62
2021/12/20 01:24:04;;;;;;;1.73;0.80;;;17.20;60.40;;;;;;5054769;28;20185;-62
2021/12/20 01:26:30;;;;;;;1.90;0.98;;;17.20;60.40;;;;;;5055194;28;20528;-62
2021/12/20 01:28:55;;;;;;;1.60;0.90;;;17.20;60.30;;;;;;5055469;28;20179;-62
2021/12/20 01:31:21;;;;;;;1.35;0.95;;;17.20;60.20;;;;;;5054219;28;20534;-62
2021/12/20 01:33:46;;;;;;;1.70;1.27;;;17.20;60.20;;;;;;5055505;28;20171;-62
2021/12/20 01:36:12;;;;;;;1.42;0.90;;;17.20;60.20;;;;;;5055404;28;20179;-62
2021/12/20 01:38:37;;;;;;;0.90;0.70;;;17.20;60.20;;;;;;5054417;28;20175;-62
2021/12/20 01:41:03;;;;;;;1.58;0.82;;;17.20;60.20;;;;;;5055231;28;20175;-62
2021/12/20 01:43:29;;;;;;;2.10;1.00;;;17.10;60.20;;;;;;5054739;28;20248;-63
2021/12/20 01:45:55;;;;;;;2.30;0.80;;;17.20;60.10;;;;;;5054376;28;20218;-62
2021/12/20 01:48:22;;;;;;;1.33;0.80;;;17.10;60.10;;;;;;5054576;28;20226;-61
2021/12/20 01:53:31;;;;;;;1.35;1.00;;;17.10;60.20;;;;;;5054762;28;20551;-61
2021/12/20 01:55:57;;;;;;;1.17;0.80;;;17.10;60.20;;;;;;5054845;28;20167;-63
2021/12/20 01:58:22;;;;;;;2.13;1.20;;;17.10;60.20;;;;;;5053721;28;20191;-62
2021/12/20 02:03:35;;;;;;;2.05;0.90;;;17.10;60.20;;;;;;5054816;28;20178;-62
2021/12/20 02:06:05;;;;;;;1.98;1.00;;;17.10;60.10;;;;;;5054092;28;20175;-63
2021/12/20 02:08:30;;;;;;;0.90;0.75;;;17.10;60.20;;;;;;5054360;28;20548;-62
2021/12/20 02:11:00;;;;;;;3.17;1.23;;;17.10;60.20;;;;;;5054589;28;20257;-62
2021/12/20 02:13:34;;;;;;;1.67;1.05;;;17.10;60.20;;;;;;5053600;28;20221;-62
2021/12/20 02:16:00;;;;;;;1.40;0.85;;;17.10;60.10;;;;;;5054720;28;20170;-63
2021/12/20 02:18:26;;;;;;;1.77;0.90;;;17.00;60.10;;;;;;5054241;28;20175;-62
2021/12/20 02:20:52;;;;;;;1.77;1.10;;;17.00;60.10;;;;;;5053832;28;20203;-63
2021/12/20 02:23:17;;;;;;;1.88;1.00;;;17.00;60.00;;;;;;5054384;28;20203;-62
2021/12/20 02:25:43;;;;;;;3.83;1.50;;;17.00;60.00;;;;;;5053642;28;20592;-62
2021/12/20 02:28:13;;;;;;;3.50;1.25;;;17.00;60.00;;;;;;5053841;28;20309;-62
2021/12/20 02:36:52;;;;;;;2.65;1.10;;;17.00;60.00;;;;;;5054199;28;20175;-62
2021/12/20 02:39:01;;;;;;;2.28;0.82;;;17.00;59.90;;;;;;5054199;28;20221;-63
2021/12/20 02:41:31;;;;;;;2.03;1.20;;;17.00;60.00;;;;;;5052956;28;20179;-62
2021/12/20 02:44:02;;;;;;;2.80;1.45;;;17.00;59.90;;;;;;5053992;28;20171;-62
2021/12/20 02:46:46;;;;;;;1.92;1.13;;;17.00;59.90;;;;;;5053742;28;20205;-61
2021/12/20 02:49:19;;;;;;;1.85;0.90;;;17.00;59.90;;;;;;5053272;28;20280;-62
2021/12/20 02:51:46;;;;;;;2.58;1.33;;;16.90;59.90;;;;;;5053818;28;20681;-61
2021/12/20 02:54:12;;;;;;;4.10;1.10;;;16.90;60.00;;;;;;5052617;28;20586;-64
2021/12/20 02:56:38;;;;;;;1.45;0.90;;;16.90;60.00;;;;;;5053572;28;20254;-63
2021/12/20 02:59:04;;;;;;;2.72;1.00;;;16.90;60.00;;;;;;5053880;28;20187;-64
2021/12/20 03:01:30;;;;;;;2.85;1.15;;;16.90;60.00;;;;;;5052713;28;20209;-61
2021/12/20 03:03:55;;;;;;;1.95;0.98;;;16.90;60.00;;;;;;5053736;28;20203;-61
2021/12/20 03:06:30;;;;;;;2.25;1.15;;;16.90;60.00;;;;;;5053267;28;20237;-61
2021/12/20 03:08:57;;;;;;;2.45;1.17;;;16.90;60.00;;;;;;5051339;28;20222;-61
2021/12/20 03:11:24;;;;;;;1.88;1.00;;;16.90;59.90;;;;;;5052928;28;20191;-61
2021/12/20 03:13:53;;;;;;;2.50;0.90;;;16.90;59.90;;;;;;5053403;28;20210;-62
2021/12/20 03:16:18;;;;;;;2.28;1.00;;;16.90;59.90;;;;;;5052581;28;20179;-62
2021/12/20 03:18:44;;;;;;;2.25;0.88;;;16.90;59.90;;;;;;5053497;28;20182;-60
2021/12/20 03:21:09;;;;;;;2.53;1.05;;;16.90;59.90;;;;;;5053307;28;20213;-61
2021/12/20 03:23:35;;;;;;;2.88;1.00;;;16.80;59.90;;;;;;5052085;28;20661;-61
2021/12/20 03:26:00;;;;;;;1.50;1.10;;;16.80;59.90;;;;;;5053145;28;20175;-61
2021/12/20 03:28:26;;;;;;;2.00;1.20;;;16.80;60.00;;;;;;5052991;28;20179;-61
2021/12/20 03:30:51;;;;;;;2.13;1.20;;;16.80;60.00;;;;;;5052412;28;20175;-60
2021/12/20 03:33:17;;;;;;;2.58;1.15;;;16.80;59.90;;;;;;5053016;28;20249;-62
2021/12/20 03:35:42;;;;;;;1.20;1.08;;;16.80;59.90;;;;;;5052608;28;20533;-61
2021/12/20 03:38:09;;;;;;;1.63;1.10;;;16.80;60.00;;;;;;5051128;28;20183;-62
2021/12/20 03:40:34;;;;;;;2.90;1.15;;;16.80;59.90;;;;;;5052477;28;20202;-62
2021/12/20 03:43:00;;;;;;;1.35;0.98;;;16.80;60.00;;;;;;5052924;28;20218;-63
2021/12/20 03:45:25;;;;;;;2.10;1.00;;;16.80;60.00;;;;;;5051802;28;20178;-62
2021/12/20 03:47:51;;;;;;;2.72;1.00;;;16.80;59.90;;;;;;5052627;28;20226;-61
2021/12/20 03:50:16;;;;;;;4.13;1.30;;;16.70;59.80;;;;;;5051976;28;20175;-62
2021/12/20 03:52:42;;;;;;;3.22;1.20;;;16.80;59.80;;;;;;5052387;28;20783;-62
2021/12/20 03:55:08;;;;;;;3.80;1.35;;;16.70;59.80;;;;;;5052672;28;20167;-61
2021/12/20 03:57:34;;;;;;;2.05;1.25;;;16.70;59.80;;;;;;5051801;28;20179;-63
2021/12/20 03:59:59;;;;;;;2.60;1.00;;;16.70;59.80;;;;;;5052742;28;20512;-63
2021/12/20 04:02:26;;;;;;;3.83;1.20;;;16.70;59.70;;;;;;5052171;28;20262;-63
2021/12/20 04:04:51;;;;;;;1.55;1.08;;;16.70;59.70;;;;;;5051807;28;20167;-62
2021/12/20 04:07:17;;;;;;;2.60;1.13;;;16.70;59.80;;;;;;5052374;28;20183;-62
2021/12/20 04:09:42;;;;;;;1.40;1.02;;;16.70;59.70;;;;;;5052129;28;20171;-62
2021/12/20 04:12:08;;;;;;;1.90;1.10;;;16.70;59.80;;;;;;5051822;28;20238;-62
2021/12/20 04:14:34;;;;;;;2.10;1.02;;;16.70;59.80;;;;;;5052046;28;20167;-62
2021/12/20 04:16:59;;;;;;;2.25;1.13;;;16.70;59.90;;;;;;5052430;28;20228;-63
2021/12/20 04:19:25;;;;;;;2.40;1.15;;;16.60;59.80;;;;;;5051188;28;20474;-62
2021/12/20 04:21:50;;;;;;;2.88;1.25;;;16.70;59.80;;;;;;5052219;28;20171;-62
2021/12/20 04:24:16;;;;;;;2.13;0.90;;;16.70;59.80;;;;;;5052199;28;20198;-61
2021/12/20 04:26:41;;;;;;;3.28;1.10;;;16.60;59.70;;;;;;5051249;28;20258;-61
2021/12/20 04:29:07;;;;;;;2.22;1.02;;;16.60;59.70;;;;;;5052029;28;20511;-62
2021/12/20 04:31:35;;;;;;;2.78;1.27;;;16.70;59.70;;;;;;5051781;28;20187;-61
2021/12/20 04:34:01;;;;;;;1.67;1.05;;;16.60;59.70;;;;;;5051324;28;20171;-62
2021/12/20 04:36:28;;;;;;;2.13;1.10;;;16.60;59.60;;;;;;5051617;28;20182;-61
2021/12/20 04:38:53;;;;;;;3.20;1.55;;;16.60;59.70;;;;;;5051804;28;20249;-60
2021/12/20 04:41:19;;;;;;;2.90;1.38;;;16.60;59.70;;;;;;5051262;28;20213;-62
2021/12/20 04:43:44;;;;;;;3.33;1.40;;;16.60;59.60;;;;;;5051945;28;20179;-63
2021/12/20 04:46:10;;;;;;;3.33;1.20;;;16.60;59.60;;;;;;5051869;28;20174;-63
2021/12/20 04:48:35;;;;;;;2.13;0.95;;;16.60;59.60;;;;;;5050494;28;20226;-65
2021/12/20 04:51:01;;;;;;;3.78;1.50;;;16.60;59.60;;;;;;5051488;28;20637;-62
2021/12/20 04:53:26;;;;;;;2.10;1.15;;;16.60;59.60;;;;;;5051142;28;20210;-63
2021/12/20 04:55:52;;;;;;;3.03;1.10;;;16.60;59.60;;;;;;5051160;28;20163;-63
2021/12/20 04:58:17;;;;;;;2.17;1.25;;;16.60;59.60;;;;;;5051916;28;20182;-65
2021/12/20 05:00:44;;;;;;;2.75;1.30;;;16.60;59.60;;;;;;5050687;28;20171;-62
2021/12/20 05:03:09;;;;;;;2.08;0.90;;;16.60;59.60;;;;;;5051729;28;20187;-63
2021/12/20 05:05:35;;;;;;;3.45;1.30;;;16.60;59.60;;;;;;5051395;28;20225;-63
2021/12/20 05:08:01;;;;;;;1.63;1.08;;;16.60;59.60;;;;;;5050975;28;20229;-62
2021/12/20 05:10:29;;;;;;;2.67;1.42;;;16.50;59.60;;;;;;5051414;28;20178;-62
2021/12/20 05:12:55;;;;;;;3.42;1.63;;;16.50;59.60;;;;;;5051570;28;20301;-63
2021/12/20 05:15:21;;;;;;;1.88;1.27;;;16.50;59.50;;;;;;5050570;28;20183;-64
2021/12/20 05:17:47;;;;;;;1.67;1.15;;;16.50;59.50;;;;;;5051531;28;20179;-63
2021/12/20 05:20:13;;;;;;;2.55;1.17;;;16.50;59.50;;;;;;5051387;28;20262;-63
2021/12/20 05:22:38;;;;;;;2.53;1.10;;;16.50;59.60;;;;;;5050331;28;20182;-62
2021/12/20 05:25:04;;;;;;;3.08;1.35;;;16.50;59.60;;;;;;5051413;28;20248;-62
2021/12/20 05:27:29;;;;;;;3.10;1.30;;;16.50;59.60;;;;;;5051114;28;20203;-62
2021/12/20 05:29:55;;;;;;;3.72;1.55;;;16.50;59.60;;;;;;5050712;28;20175;-63
2021/12/20 05:32:20;;;;;;;1.75;1.10;;;16.50;59.60;;;;;;5050944;28;20257;-63
2021/12/20 05:34:46;;;;;;;2.92;0.90;;;16.50;59.60;;;;;;5051334;28;20235;-62
2021/12/20 05:37:13;;;;;;;2.60;1.30;;;16.50;59.60;;;;;;5050649;28;20207;-62
2021/12/20 05:39:40;;;;;;;3.90;1.45;;;16.50;59.60;;;;;;5051214;28;20187;-62
2021/12/20 05:42:06;;;;;;;3.38;1.33;;;16.50;59.60;;;;;;5051196;28;20616;-63
2021/12/20 05:44:31;;;;;;;2.88;1.33;;;16.50;59.60;;;;;;5050388;28;20176;-62
2021/12/20 05:46:57;;;;;;;1.92;0.93;;;16.40;59.50;;;;;;5050948;28;20630;-62
2021/12/20 05:49:22;;;;;;;4.78;1.63;;;16.50;59.60;;;;;;5050839;28;20179;-62
2021/12/20 05:51:48;;;;;;;3.13;0.82;;;16.40;59.50;;;;;;5050298;28;20654;-62
2021/12/20 05:54:14;;;;;;;2.35;1.40;;;16.40;59.50;;;;;;5051136;28;20179;-63
2021/12/20 05:56:39;;;;;;;1.80;1.20;;;16.40;59.50;;;;;;5050880;28;20713;-63
2021/12/20 05:59:05;;;;;;;5.20;1.35;;;16.40;59.50;;;;;;5050507;28;20626;-63
2021/12/20 06:01:30;;;;;;;2.67;1.30;;;16.40;59.50;;;;;;5051927;28;20186;-62
2021/12/20 06:03:57;;;;;;;3.28;1.45;;;16.40;59.50;;;;;;5053971;28;20171;-62
2021/12/20 06:06:22;;;;;;;2.33;1.33;;;16.40;59.40;;;;;;5054708;28;20175;-62
2021/12/20 06:08:48;;;;;;;3.88;1.65;;;16.40;59.40;;;;;;5054627;28;20171;-61
2021/12/20 06:11:13;;;;;;;4.18;1.33;;;16.40;59.50;;;;;;5054020;28;20187;-62
2021/12/20 06:13:42;;;;;;;3.42;1.55;;;16.40;59.50;;;;;;5054490;28;20293;-62
2021/12/20 06:16:07;;;;;;;3.13;1.30;;;16.40;60.10;;;;;;5054597;28;20179;-62
2021/12/20 06:18:33;;;;;;;3.60;1.40;;;16.40;59.50;;;;;;5053427;28;20696;-62
2021/12/20 06:20:58;;;;;;;2.28;1.38;;;16.40;59.40;;;;;;5054676;28;20237;-62
2021/12/20 06:23:24;;;;;;;1.85;1.10;;;16.30;59.50;;;;;;5054191;28;20240;-61
2021/12/20 06:25:49;;;;;;;2.25;1.10;;;16.30;59.40;;;;;;5053733;28;20178;-63
2021/12/20 06:28:15;;;;;;;2.40;1.27;;;16.30;59.50;;;;;;5054310;28;20229;-63
2021/12/20 06:30:40;;;;;;;2.38;1.38;;;16.30;59.50;;;;;;5053941;28;20179;-62
2021/12/20 06:33:06;;;;;;;2.70;1.10;;;16.30;59.40;;;;;;5053286;28;20207;-62
2021/12/20 06:35:31;;;;;;;2.42;1.17;;;16.30;59.40;;;;;;5053817;28;20175;-62
2021/12/20 06:38:01;;;;;;;3.15;1.40;;;16.30;59.40;;;;;;5054045;28;20630;-62
2021/12/20 06:40:27;;;;;;;2.50;1.20;;;16.30;59.40;;;;;;5053251;28;20175;-62
2021/12/20 06:42:53;;;;;;;2.58;1.20;;;16.30;59.50;;;;;;5053875;28;20646;-61
2021/12/20 06:45:18;;;;;;;1.90;1.10;;;16.30;59.40;;;;;;5053854;28;20294;-62
2021/12/20 06:47:44;;;;;;;1.83;1.17;;;16.30;59.40;;;;;;5052814;28;20218;-62
2021/12/20 06:50:09;;;;;;;3.08;1.38;;;16.30;59.40;;;;;;5053950;28;20193;-62
2021/12/20 06:52:35;;;;;;;3.13;1.13;;;16.30;59.40;;;;;;5053530;28;20341;-61
2021/12/20 06:55:00;;;;;;;2.65;1.20;;;16.30;59.50;;;;;;5052956;28;20221;-62
2021/12/20 06:57:26;;;;;;;2.47;1.38;;;16.30;59.40;;;;;;5053452;28;20183;-61
2021/12/20 06:59:51;;;;;;;2.92;1.00;;;16.30;59.40;;;;;;5053693;28;20182;-62
2021/12/20 07:02:17;;;;;;;2.10;1.20;;;16.30;59.50;;;;;;5052957;28;20175;-62
2021/12/20 07:04:43;;;;;;;3.30;1.50;;;16.30;59.50;;;;;;5053438;28;20179;-60
2021/12/20 07:07:08;;;;;;;2.38;1.10;;;16.30;59.40;;;;;;5053034;28;20193;-60
2021/12/20 07:09:34;;;;;;;3.13;1.30;;;16.30;59.50;;;;;;5053216;28;20197;-61
2021/12/20 07:12:00;;;;;;;1.88;0.95;;;16.30;59.50;;;;;;5053302;28;20211;-61
2021/12/20 07:14:27;;;;;;;1.98;1.00;;;16.30;59.50;;;;;;5052666;28;20300;-62
2021/12/20 07:16:56;;;;;;;3.47;1.15;;;16.40;59.50;;;;;;5053326;28;20186;-62
2021/12/20 07:19:21;;;;;;;3.15;1.35;;;16.30;59.50;;;;;;5053027;28;20328;-62
2021/12/20 07:21:47;;;;;;;3.10;1.20;;;16.30;59.40;;;;;;5052754;28;20563;-62
2021/12/20 07:24:13;;;;;;;2.50;1.33;;;16.30;59.40;;;;;;5053332;28;20204;-62
2021/12/20 07:26:41;;;;;;;2.08;1.40;;;16.30;59.40;;;;;;5053000;28;20175;-61
2021/12/20 07:29:06;;;;;;;2.22;1.20;;;16.30;59.40;;;;;;5052313;28;20179;-61
2021/12/20 07:31:32;;;;;;;1.73;0.98;;;16.30;59.40;;;;;;5052600;28;20172;-61
2021/12/20 07:33:57;;;;;;;3.22;1.45;;;16.30;59.40;;;;;;5053135;28;20171;-61
2021/12/20 07:36:23;;;;;;;2.20;1.38;;;16.40;59.50;;;;;;5052015;28;20178;-61
2021/12/20 07:38:49;;;;;;;1.48;1.10;;;16.40;59.50;;;;;;5052982;28;20171;-60
2021/12/20 07:41:18;;;;;;;1.95;0.90;;;16.50;59.40;;;;;;5052881;28;20328;-61
2021/12/20 07:43:44;;;;;;;2.28;1.08;;;16.70;59.20;;;;;;5052061;28;20179;-61
2021/12/20 07:46:09;;;;;;;2.00;1.00;;;16.90;59.00;;;;;;5052773;28;20214;-61
2021/12/20 07:48:34;;;;;;;1.33;0.80;;;17.10;58.60;;;;;;5052208;28;20258;-60
2021/12/20 07:51:01;;;;;;;0.82;0.73;;;17.40;58.30;;;;;;5052356;28;20225;-60
2021/12/20 07:53:27;;;;;;;2.33;1.35;;;17.60;57.90;;;;;;5052433;28;20550;-61
2021/12/20 07:55:52;;;;;;;1.52;0.90;;;17.90;57.50;;;;;;5052569;28;20179;-61
2021/12/20 07:58:18;;;;;;;1.65;0.98;;;18.20;56.70;;;;;;5051844;28;20187;-63
2021/12/20 08:00:43;;;;;;;1.08;0.98;;;18.50;56.20;;;;;;5052144;28;20273;-61
2021/12/20 08:03:09;;;;;;;1.88;1.00;;;18.70;55.70;;;;;;5052356;28;20179;-62
2021/12/20 08:05:35;;;;;;;1.77;0.90;;;18.80;55.60;;;;;;5051388;28;20199;-60
2021/12/20 08:08:00;;;;;;;2.70;1.00;;;18.80;55.50;;;;;;5052323;28;20650;-60
2021/12/20 08:10:27;;;;;;;1.83;1.02;;;18.90;55.50;;;;;;5051840;28;20258;-67
2021/12/20 08:12:52;;;;;;;2.33;1.27;;;18.80;55.50;;;;;;5052217;28;20242;-67
2021/12/20 08:15:18;;;;;;;2.03;1.00;;;19.00;55.40;;;;;;5051989;28;20207;-67
2021/12/20 08:17:46;;;;;;;0.98;0.90;;;19.00;55.50;;;;;;5051609;28;20856;-67
2021/12/20 08:20:12;;;;;;;0.95;0.70;;;18.90;55.60;;;;;;5052208;28;20612;-66
2021/12/20 08:22:39;;;;;;;1.92;1.20;;;18.80;55.80;;;;;;5052033;28;20190;-67
2021/12/20 08:25:05;;;;;;;1.15;0.82;;;18.80;55.90;;;;;;5050990;28;20776;-67
2021/12/20 08:27:31;;;;;;;2.22;0.90;;;18.70;56.00;;;;;;5051785;28;20175;-67
2021/12/20 08:29:56;;;;;;;3.17;1.00;;;18.70;56.10;;;;;;5052064;28;20227;-69
2021/12/20 08:32:22;;;;;;;2.00;1.00;;;18.70;56.10;;;;;;5051099;28;20525;-67
2021/12/20 08:34:47;;;;;;;1.92;1.15;;;18.70;56.10;;;;;;5052056;28;20240;-69
2021/12/20 08:37:13;;;;;;;1.58;1.05;;;18.70;56.10;;;;;;5051764;28;20193;-69
2021/12/20 08:39:38;;;;;;;1.63;1.02;;;18.70;56.10;;;;;;5050905;28;20709;-68
2021/12/20 08:42:04;;;;;;;3.83;1.20;;;18.70;56.10;;;;;;5051987;28;20206;-67
2021/12/20 08:44:30;;;;;;;1.95;1.00;;;18.80;56.10;;;;;;5051826;28;20660;-68
2021/12/20 08:46:56;;;;;;;2.08;0.80;;;18.80;56.10;;;;;;5051167;28;20230;-67
2021/12/20 08:49:22;;;;;;;1.42;1.10;;;18.70;56.30;;;;;;5051508;28;20176;-66
2021/12/20 08:51:47;;;;;;;4.15;1.35;;;18.60;56.30;;;;;;5051661;28;20221;-71
2021/12/20 08:54:13;;;;;;;3.10;1.20;;;18.50;56.70;;;;;;5051087;28;20173;-66
2021/12/20 08:56:39;;;;;;;3.83;1.10;;;18.50;57.00;;;;;;5051253;28;20178;-67
2021/12/20 08:59:05;;;;;;;3.08;1.25;;;18.40;57.20;;;;;;5051480;28;20679;-66
2021/12/20 09:01:31;;;;;;;4.50;1.30;;;18.40;57.30;;;;;;5050904;28;20175;-66
2021/12/20 09:03:57;;;;;;;2.95;0.95;;;18.40;57.40;;;;;;5051697;28;20483;-66
2021/12/20 09:06:24;;;;;;;3.10;1.05;;;18.50;57.30;;;;;;5051231;28;20265;-66
2021/12/20 09:08:50;;;;;;;3.17;1.20;;;18.60;57.30;;;;;;5051123;28;20205;-65
2021/12/20 09:11:16;;;;;;;4.65;1.10;;;18.60;57.30;;;;;;5051367;28;20574;-64
2021/12/20 09:13:41;;;;;;;2.05;1.13;;;18.70;57.20;;;;;;5051212;28;20260;-65
2021/12/20 09:16:07;;;;;;;1.77;0.85;;;18.70;57.30;;;;;;5051386;28;20203;-65
2021/12/20 09:18:35;;;;;;;2.85;0.98;;;18.70;57.30;;;;;;5051311;28;20274;-67
2021/12/20 09:21:11;;;;;;;5.57;1.30;;;18.70;57.30;;;;;;5051195;28;20171;-66
2021/12/20 09:23:40;;;;;;;2.28;0.90;;;18.70;57.30;;;;;;5051125;28;20179;-65
2021/12/20 09:26:06;;;;;;;3.63;1.20;;;18.60;57.40;;;;;;5051179;28;20258;-65
2021/12/20 09:28:31;;;;;;;2.00;0.90;;;18.60;57.60;;;;;;5050042;28;20278;-64
2021/12/20 09:30:57;;;;;;;3.85;1.00;;;18.60;57.90;;;;;;5051116;28;20175;-67
2021/12/20 09:33:22;;;;;;;2.05;1.02;;;18.50;58.00;;;;;;5050939;28;20211;-68
2021/12/20 09:35:50;;;;;;;3.40;1.05;;;18.40;58.30;;;;;;5050679;28;20167;-64
2021/12/20 09:38:17;;;;;;;2.38;1.02;;;18.40;58.50;;;;;;5055498;28;20191;-64
2021/12/20 09:41:01;;;;;;;4.07;1.20;;;18.30;58.50;;;;;;5054799;28;20171;-63
2021/12/20 09:43:27;;;;;;;4.28;1.35;;;18.20;58.70;;;;;;5054367;28;20217;-66
2021/12/20 09:45:53;;;;;;;3.95;1.33;;;18.20;58.80;;;;;;5055234;28;20198;-70
2021/12/20 09:48:18;;;;;;;6.72;1.50;;;18.10;59.20;;;;;;5053377;28;20624;-69
2021/12/20 09:50:44;;;;;;;4.10;1.30;;;18.10;58.90;;;;;;5054189;28;20170;-69
2021/12/20 09:53:09;;;;;;;4.40;1.40;;;18.00;58.90;;;;;;5053467;28;20282;-68
2021/12/20 09:55:35;;;;;;;4.45;1.60;;;18.00;59.00;;;;;;5053111;28;20266;-69
2021/12/20 09:58:02;;;;;;;5.18;1.90;;;18.00;59.10;;;;;;5054138;28;20241;-70
2021/12/20 10:00:28;;;;;;;2.63;1.20;;;17.90;59.10;;;;;;5054550;28;20248;-71
2021/12/20 10:02:53;;;;;;;4.03;1.60;;;18.00;59.00;;;;;;5054550;28;20638;-68
2021/12/20 10:05:19;;;;;;;2.78;1.23;;;18.00;58.90;;;;;;5053673;28;20166;-67
2021/12/20 10:07:50;;;;;;;3.35;1.45;;;18.00;58.80;;;;;;5054558;28;20198;-67
2021/12/20 10:10:43;;;;;;;2.95;1.30;;;18.00;58.80;;;;;;5053952;28;20244;-65
2021/12/20 10:13:23;;;;;;;4.05;1.50;;;18.00;58.80;;;;;;5054544;28;20361;-66
2021/12/20 10:15:48;;;;;;;4.20;1.55;;;18.00;59.00;;;;;;5053479;28;20225;-66
2021/12/20 10:18:14;;;;;;;3.47;1.33;;;18.00;59.00;;;;;;5053598;28;20171;-64
2021/12/20 10:20:40;;;;;;;4.15;1.52;;;17.90;59.00;;;;;;5054184;28;20458;-66
2021/12/20 10:23:20;;;;;;;2.90;1.55;;;17.90;59.00;;;;;;5054186;28;20186;-65
2021/12/20 10:25:54;;;;;;;4.38;1.90;;;17.90;59.30;;;;;;5053706;28;20183;-68
2021/12/20 10:28:23;;;;;;;4.63;1.13;;;17.90;59.20;;;;;;5053888;28;20175;-64
2021/12/20 10:30:51;;;;;;;2.85;1.35;;;17.90;59.10;;;;;;5054166;28;20183;-66
2021/12/20 10:33:20;;;;;;;3.75;1.42;;;18.00;59.10;;;;;;5053437;28;20207;-66
2021/12/20 10:35:52;;;;;;;3.15;1.45;;;17.90;59.10;;;;;;5054146;28;20171;-67
2021/12/20 10:38:18;;;;;;;6.10;1.35;;;18.00;59.00;;;;;;5053364;28;20186;-67
2021/12/20 10:41:02;;;;;;;3.00;1.40;;;18.00;59.10;;;;;;5053838;28;20175;-67
2021/12/20 10:43:32;;;;;;;2.58;1.30;;;18.00;59.20;;;;;;5053696;28;20179;-65
2021/12/20 10:45:57;;;;;;;4.57;1.70;;;17.90;59.10;;;;;;5053027;28;20228;-65
2021/12/20 10:48:30;;;;;;;3.35;1.40;;;17.90;59.20;;;;;;5052838;28;20223;-68
2021/12/20 10:50:56;;;;;;;4.68;1.85;;;17.90;59.40;;;;;;5053873;28;20177;-67
2021/12/20 10:53:23;;;;;;;3.20;1.73;;;17.90;59.40;;;;;;5052688;28;20207;-65
2021/12/20 10:55:59;;;;;;;5.70;1.25;;;17.80;59.40;;;;;;5061683;28;20270;-66
2021/12/20 10:58:36;;;;;;;3.45;1.52;;;17.80;59.20;;;;;;5069129;28;20254;-66
2021/12/20 11:01:08;;;;;;;2.80;1.38;;;17.80;59.30;;;;;;5070952;28;20260;-68
2021/12/20 11:03:38;;;;;;;3.30;1.40;;;17.80;59.20;;;;;;5053236;28;20175;-66
2021/12/20 11:11:27;;;;;;;4.45;1.95;;;17.70;59.20;;;;;;5070790;28;20551;-66
2021/12/20 11:13:53;;;;;;;4.10;1.73;;;17.60;59.20;;;;;;5072625;28;20171;-68
2021/12/20 11:16:51;;;;;;;5.05;1.83;;;17.60;59.10;;;;;;5073008;28;20179;-66
2021/12/20 11:19:24;;;;;;;4.60;1.40;;;17.70;59.10;;;;;;5071532;28;20186;-66
2021/12/20 11:21:55;;;;;;;4.90;1.65;;;17.70;58.90;;;;;;5072809;28;20499;-65
2021/12/20 11:24:23;;;;;;;2.40;1.13;;;17.80;58.80;;;;;;5073338;28;20183;-64
2021/12/20 11:26:49;;;;;;;3.83;1.40;;;17.90;58.70;;;;;;5069813;28;20171;-66
2021/12/20 11:29:15;;;;;;;4.63;1.52;;;17.90;58.60;;;;;;5052611;28;20244;-66
2021/12/20 11:31:41;;;;;;;4.60;1.58;;;17.90;58.60;;;;;;5053046;28;20195;-67
2021/12/20 11:34:06;;;;;;;4.40;1.90;;;17.90;58.70;;;;;;5053663;28;20181;-66
2021/12/20 11:36:32;;;;;;;6.63;1.85;;;17.90;58.70;;;;;;5052392;28;20167;-67
2021/12/20 11:38:58;;;;;;;5.57;2.00;;;17.80;58.70;;;;;;5052941;28;20175;-66
2021/12/20 11:41:26;;;;;;;5.82;1.85;;;17.80;58.70;;;;;;5052812;28;20270;-62
2021/12/20 11:43:52;;;;;;;5.00;1.90;;;17.80;58.60;;;;;;5052890;28;20201;-67
2021/12/20 11:46:17;;;;;;;8.15;2.15;;;17.70;58.60;;;;;;5051419;28;20553;-65
2021/12/20 11:48:43;;;;;;;4.97;1.77;;;17.70;58.60;;;;;;5033514;28;20219;-66
2021/12/20 11:51:09;;;;;;;3.55;1.58;;;17.80;58.60;;;;;;5052573;28;20175;-66
2021/12/20 11:53:40;;;;;;;6.45;2.15;;;17.80;58.50;;;;;;5052019;28;20693;-67
2021/12/20 11:56:07;;;;;;;4.82;2.05;;;17.90;58.40;;;;;;5051829;28;20199;-67
2021/12/20 11:58:33;;;;;;;6.55;1.92;;;17.90;58.40;;;;;;5051628;28;20190;-67
2021/12/20 12:01:07;;;;;;;3.60;1.50;;;17.90;58.40;;;;;;5055856;28;20536;-67
2021/12/20 12:03:36;;;;;;;8.20;1.90;;;17.90;58.40;;;;;;5069999;28;20171;-62
2021/12/20 12:06:05;;;;;;;5.13;1.75;;;17.90;58.70;;;;;;5072311;28;20265;-69
2021/12/20 12:08:35;;;;;;;6.05;1.98;;;17.90;58.50;;;;;;5071972;28;20538;-66
2021/12/20 12:11:07;;;;;;;5.90;2.20;;;17.90;58.50;;;;;;5071574;28;20202;-67
2021/12/20 12:14:05;;;;;;;5.65;1.83;;;17.80;58.60;;;;;;5071749;28;20550;-67
2021/12/20 12:17:01;;;;;;;8.82;2.30;;;17.80;58.60;;;;;;5071352;28;20240;-66
2021/12/20 12:19:40;;;;;;;10.43;2.22;;;17.80;58.70;;;;;;5072017;28;20198;-68
2021/12/20 12:22:37;;;;;;;6.53;2.28;;;17.80;58.80;;;;;;5072242;28;20250;-65
2021/12/20 12:25:04;;;;;;;9.60;2.83;;;17.90;58.70;;;;;;5071346;28;20174;-64
2021/12/20 12:27:34;;;;;;;11.13;2.60;;;18.00;58.80;;;;;;5071332;28;20170;-64
2021/12/20 12:30:12;;;;;;;6.63;2.03;;;18.00;58.80;;;;;;5071853;28;20653;-64
2021/12/20 12:32:54;;;;;;;5.80;2.03;;;18.10;58.80;;;;;;5070898;28;20198;-65
2021/12/20 12:35:39;;;;;;;8.02;2.25;;;18.20;58.60;;;;;;5071520;28;20163;-67
2021/12/20 12:38:20;;;;;;;7.13;2.28;;;18.40;58.50;;;;;;5070793;28;20205;-65
2021/12/20 12:41:13;;;;;;;6.57;2.05;;;18.50;58.30;;;;;;5072036;28;20189;-65
2021/12/20 12:43:55;;;;;;;2.50;1.65;;;18.70;58.10;;;;;;5067829;28;20190;-67
2021/12/20 12:46:35;;;;;;;4.82;2.42;;;18.80;57.90;;;;;;5070475;28;20186;-67
2021/12/20 12:49:24;;;;;;;4.18;1.85;;;18.90;57.60;;;;;;5071870;28;20182;-66
2021/12/20 12:51:57;;;;;;;4.50;1.88;;;19.00;57.30;;;;;;5070455;28;20184;-67
2021/12/20 12:54:40;;;;;;;4.93;2.22;;;19.10;57.10;;;;;;5071199;28;20189;-67
2021/12/20 12:57:11;;;;;;;5.53;2.00;;;19.30;56.70;;;;;;5071681;28;20551;-67
2021/12/20 12:59:37;;;;;;;4.90;1.80;;;19.40;56.40;;;;;;5070324;28;20175;-68
2021/12/20 13:02:11;;;;;;;3.63;1.85;;;19.50;56.10;;;;;;5058901;28;20186;-68
2021/12/20 13:04:47;;;;;;;3.92;1.50;;;19.60;55.80;;;;;;5051236;28;20182;-66
2021/12/20 13:07:23;;;;;;;5.47;1.90;;;19.70;55.60;;;;;;5050458;28;20240;-66
2021/12/20 13:09:50;;;;;;;6.25;2.00;;;19.70;55.50;;;;;;5051423;28;20175;-67